METAR Data
IDs: Format: Raw Decoded Include TAF

Data at: 2025 UTC 19 May 2019

KFXY 192015Z AUTO 31010KT 10SM OVC017 10/06 A2975 RMK AO2
KFXY 191955Z AUTO 30009KT 10SM BKN017 OVC021 10/07 A2975 RMK AO2
KFXY 191935Z AUTO 33008KT 10SM OVC015 10/07 A2974 RMK AO2
KFXY 191915Z AUTO 33011KT 10SM OVC015 10/07 A2973 RMK AO2
KFXY 191855Z AUTO 35013KT 10SM OVC015 10/07 A2972 RMK AO2
KFXY 191835Z AUTO 35010KT 10SM OVC015 10/07 A2970 RMK AO2
KFXY 191815Z AUTO 35011KT 10SM OVC015 10/07 A2969 RMK AO2
KFXY 191755Z AUTO 36011G18KT 10SM OVC013 10/07 A2968 RMK AO2
KFXY 191735Z AUTO 35011G19KT 10SM OVC013 10/07 A2967 RMK AO2
KFXY 191715Z AUTO 35012G17KT 10SM OVC013 10/07 A2968 RMK AO2
KFXY 191655Z AUTO 35015G18KT 10SM OVC015 09/07 A2967 RMK AO2
KFXY 191635Z AUTO 35011KT 10SM OVC015 09/07 A2968 RMK AO2
KFXY 191615Z AUTO 33011G16KT 10SM OVC015 09/07 A2967 RMK AO2
KFXY 191555Z AUTO 34010G15KT 10SM OVC015 09/07 A2966 RMK AO2
KFXY 191535Z AUTO 34011G16KT 10SM OVC015 09/07 A2964 RMK AO2
KFXY 191515Z AUTO 35012G17KT 10SM OVC013 09/07 A2962 RMK AO2
KFXY 191455Z AUTO 35014G19KT 10SM OVC011 08/08 A2962 RMK AO2
KFXY 191435Z AUTO 35014G18KT 10SM BKN009 OVC015 08/08 A2961 RMK AO2
KFXY 191415Z AUTO 35010KT 10SM BKN009 OVC014 07/07 A2961 RMK AO2
KFXY 191355Z AUTO 36011G14KT 10SM -DZ OVC011 07/07 A2961 RMK AO2
KFXY 191335Z AUTO 35011G15KT 10SM OVC012 07/07 A2960 RMK AO2
KFXY 191315Z AUTO 35011KT 10SM OVC012 07/07 A2960 RMK AO2
KFXY 191255Z AUTO 33010G15KT 10SM OVC012 07/07 A2960 RMK AO2
KFXY 191235Z AUTO 34011G14KT 10SM -DZ OVC010 07/07 A2960 RMK AO2
KFXY 191215Z AUTO 35010KT 10SM -DZ OVC010 08/07 A2958 RMK AO2
KFXY 191155Z AUTO 34009KT 10SM -RA OVC010 08/07 A2958 RMK AO2
KFXY 191135Z AUTO 36010KT 10SM -DZ OVC010 08/07 A2957 RMK AO2
KFXY 191115Z AUTO 36009KT 10SM -RA OVC008 08/07 A2956 RMK AO2
KFXY 191055Z AUTO 02011KT 10SM -RA OVC008 08/08 A2953 RMK AO2 P0001
KFXY 191035Z AUTO 02012KT 10SM OVC008 08/08 A2954 RMK AO2
KFXY 191015Z AUTO 02009KT 10SM DZ OVC008 08/08 A2955 RMK AO2
KFXY 190955Z AUTO 01009KT 7SM DZ OVC006 08/08 A2955 RMK AO2 P0005
KFXY 190935Z AUTO 03011KT 5SM +RA BKN006 BKN028 OVC049 08/08 A2955 RMK AO2 P0005
KFXY 190915Z AUTO 03011KT 4SM RA BKN006 BKN028 OVC043 08/08 A2955 RMK AO2 P0003
KFXY 190855Z AUTO 02011G14KT 4SM RA BKN006 BKN027 OVC050 09/08 A2956 RMK AO2 P0005
KFXY 190835Z AUTO 03013G18KT 5SM RA SCT006 BKN029 OVC039 09/08 A2955 RMK AO2 P0003
KFXY 190815Z AUTO 01011KT 5SM +RA BKN006 OVC028 09/09 A2956 RMK AO2 P0001
KFXY 190755Z AUTO 02014G18KT 5SM RA BKN006 OVC032 10/09 A2956 RMK AO2 P0018
KFXY 190735Z AUTO 02011G17KT 5SM RA SCT006 BKN029 OVC041 10/10 A2956 RMK AO2 P0014
KFXY 190715Z AUTO 03012G16KT 4SM +RA SCT006 SCT023 OVC029 10/10 A2957 RMK AO2 P0008
KFXY 190655Z AUTO 03011G16KT 4SM +RA SCT006 BKN015 OVC029 11/10 A2957 RMK AO2 P0032
KFXY 190635Z AUTO 02010KT 4SM +RA BKN006 BKN014 OVC019 11/11 A2958 RMK AO2 P0022
KFXY 190615Z AUTO 01009KT 4SM +RA BKN004 BKN012 OVC019 12/11 A2957 RMK AO2 P0011
KFXY 190555Z AUTO 01009KT 3SM +RA BKN004 OVC018 12/12 A2956 RMK AO2 P0036
KFXY 190535Z AUTO 04008G16KT 4SM +RA BKN006 BKN016 OVC023 12/12 A2957 RMK AO2 P0020
KFXY 190515Z AUTO 02010G18KT 3SM +RA BKN004 BKN020 OVC029 13/13 A2957 RMK AO2 P0007
KFXY 190455Z AUTO 03009KT 5SM +RA BKN004 BKN011 OVC050 14/13 A2957 RMK AO2 P0006
KFXY 190435Z AUTO 03008KT 5SM +RA BKN004 BKN010 OVC044 15/14 A2959 RMK AO2 P0004
KFXY 190415Z AUTO 03009KT 5SM RA SCT004 BKN011 OVC045 15/15 A2959 RMK AO2 P0002
KFXY 190355Z AUTO 06007KT 5SM RA SCT004 BKN042 OVC050 16/15 A2960 RMK AO2 P0007
KFXY 190335Z AUTO 06005KT 7SM RA SCT018 SCT023 OVC050 16/16 A2962 RMK AO2 P0004
KFXY 190315Z AUTO 07004KT 10SM -RA SCT024 BKN050 OVC065 16/16 A2962 RMK AO2 P0001
KFXY 190255Z AUTO 07003KT 7SM -RA BKN065 OVC070 16/15 A2962 RMK AO2 P0011
KFXY 190235Z AUTO 00000KT 5SM RA BKN050 OVC060 16/16 A2962 RMK AO2 P0007
KFXY 190215Z AUTO 00000KT 7SM RA SCT043 BKN050 OVC065 16/16 A2962 RMK AO2 P0003
KFXY 190155Z AUTO 19010G14KT 7SM +RA SCT031 SCT046 OVC065 16/16 A2962 RMK AO2 P0024
KFXY 190135Z AUTO 19012KT 4SM +RA SCT010 BKN029 OVC055 16/16 A2962 RMK AO2 P0020
KFXY 190115Z AUTO 19021G26KT 3SM +RA SCT009 BKN017 OVC036 17/17 A2960 RMK AO2 P0006
KFXY 190055Z AUTO 19019G24KT 7SM RA BKN036 OVC047 19/16 A2960 RMK AO2
KFXY 190035Z AUTO 18014G18KT 10SM SCT048 BKN065 OVC080 22/16 A2958 RMK AO2
KFXY 190015Z AUTO 23004KT 10SM SCT080 22/16 A2957 RMK AO2
KFXY 182355Z AUTO 25003KT 10SM CLR 23/15 A2957 RMK AO2
KFXY 182335Z AUTO 24005KT 10SM CLR 23/15 A2957 RMK AO2
KFXY 182315Z AUTO 21007KT 10SM CLR 23/15 A2958 RMK AO2
KFXY 182255Z AUTO 22007KT 10SM CLR 25/15 A2957 RMK AO2
KFXY 182235Z AUTO 22009KT 10SM SCT048 SCT055 SCT080 25/15 A2957 RMK AO2
KFXY 182215Z AUTO 22011KT 10SM BKN048 BKN050 OVC070 25/15 A2959 RMK AO2
KFXY 182155Z AUTO 22010KT 10SM SCT050 SCT055 BKN070 25/15 A2958 RMK AO2
KFXY 182135Z AUTO 22011KT 10SM SCT070 SCT080 25/15 A2958 RMK AO2
KFXY 182115Z AUTO 22006KT 10SM SCT049 SCT070 25/16 A2959 RMK AO2
KFXY 182055Z AUTO 22005KT 10SM BKN049 BKN060 BKN070 25/16 A2960 RMK AO2
KFXY 182035Z AUTO 22003KT 10SM SCT049 OVC065 24/16 A2961 RMK AO2
KFXY 182015Z AUTO 23005KT 10SM SCT044 BKN060 OVC075 25/16 A2960 RMK AO2
KFXY 181955Z AUTO 35004KT 10SM SCT036 BKN047 BKN060 24/19 A2959 RMK AO2
KFXY 181935Z AUTO 13005KT 10SM SCT031 SCT041 BKN060 25/18 A2957 RMK AO2
KFXY 181915Z AUTO 10007KT 10SM SCT026 BKN035 OVC060 23/18 A2959 RMK AO2
KFXY 181855Z AUTO 10007G14KT 10SM SCT024 SCT031 BKN039 23/18 A2959 RMK AO2
KFXY 181835Z AUTO 09008KT 10SM SCT022 SCT030 BKN039 23/18 A2959 RMK AO2
KFXY 181815Z AUTO 08006KT 10SM SCT022 SCT030 BKN044 22/17 A2959 RMK AO2
KFXY 181755Z AUTO 09006KT 10SM BKN024 BKN030 22/18 A2960 RMK AO2
KFXY 181735Z AUTO 11007KT 10SM BKN022 BKN028 22/17 A2961 RMK AO2
KFXY 181715Z AUTO 11006KT 10SM SCT018 SCT024 22/18 A2961 RMK AO2
KFXY 181655Z AUTO 12004KT 10SM SCT018 21/17 A2961 RMK AO2
KFXY 181635Z AUTO 07003KT 10SM CLR 20/16 A2960 RMK AO2
KFXY 181615Z AUTO 06004KT 10SM SCT013 19/16 A2958 RMK AO2
KFXY 181555Z AUTO 04003KT 10SM BKN013 18/15 A2959 RMK AO2
KFXY 181535Z AUTO 00000KT 10SM SCT011 17/15 A2958 RMK AO2
KFXY 181515Z AUTO 13006KT 10SM SCT010 16/14 A2956 RMK AO2
KFXY 181455Z AUTO 13011KT 10SM CLR 15/13 A2958 RMK AO2
KFXY 181435Z AUTO 14011KT 10SM CLR 15/13 A2960 RMK AO2
KFXY 181415Z AUTO 14012G17KT 10SM CLR 14/12 A2959 RMK AO2
KFXY 181355Z AUTO 13011KT 10SM CLR 13/12 A2959 RMK AO2
KFXY 181335Z AUTO 13013G20KT 10SM CLR 12/11 A2959 RMK AO2
KFXY 181315Z AUTO 13013G18KT 10SM CLR 12/10 A2960 RMK AO2
KFXY 181255Z AUTO 13013G16KT 10SM SCT100 SCT120 11/10 A2963 RMK AO2
KFXY 181235Z AUTO 13014G20KT 10SM BKN100 BKN120 11/10 A2964 RMK AO2
KFXY 181215Z AUTO 14011KT 10SM SCT110 11/09 A2964 RMK AO2
KFXY 181155Z AUTO 13008G15KT 10SM SCT090 SCT120 11/09 A2965 RMK AO2
KFXY 181135Z AUTO 13009KT 10SM CLR 10/09 A2966 RMK AO2
KFXY 181115Z AUTO 13011G15KT 10SM SCT095 10/09 A2967 RMK AO2
KFXY 181055Z AUTO 13013G19KT 10SM SCT050 SCT075 OVC095 11/10 A2965 RMK AO2
KFXY 181035Z AUTO 13013KT 10SM SCT036 BKN049 OVC070 11/10 A2965 RMK AO2
KFXY 181015Z AUTO 13011G18KT 10SM BKN036 OVC045 11/10 A2965 RMK AO2
KFXY 180955Z AUTO 12012G21KT 10SM SCT041 BKN049 OVC085 11/10 A2965 RMK AO2
KFXY 180935Z AUTO 12016G22KT 10SM BKN060 OVC085 11/10 A2965 RMK AO2
KFXY 180915Z AUTO 12012G21KT 10SM SCT049 BKN070 BKN100 11/10 A2967 RMK AO2
KFXY 180855Z AUTO 12015G26KT 10SM -RA SCT049 SCT060 BKN070 11/10 A2967 RMK AO2
KFXY 180835Z AUTO 12015G21KT 10SM SCT060 SCT075 12/10 A2968 RMK AO2